<?xml version="1.0" encoding="UTF-8" standalone="no" ?>
<gpx xmlns="http://www.topografix.com/GPX/1/1" xmlns:xsi="http://www.w3.org/2001/XMLSchema-instance" xsi:schemaLocation="http://www.topografix.com/GPX/1/1 http://www.topografix.com/GPX/1/1/gpx.xsd" version="1.1" creator="VisuGPX - https://www.visugpx.com">
  <metadata>
    <name>Attelages aligot trajet retour 12km</name>
  </metadata>
  <trk>
    <name><![CDATA[Attelages aligot trajet retour 12km]]></name>
    <trkseg>
      <trkpt lat="48.66147" lon="1.87991">
        <ele>172</ele>
        <time>2021-08-26T10:36:59+02:00</time>
      </trkpt>
      <trkpt lat="48.66114" lon="1.88024">
        <ele>173</ele>
        <time>2021-08-26T10:37:04+02:00</time>
      </trkpt>
      <trkpt lat="48.6609" lon="1.88021">
        <ele>173</ele>
        <time>2021-08-26T10:37:09+02:00</time>
      </trkpt>
      <trkpt lat="48.66061" lon="1.88042">
        <ele>173</ele>
        <time>2021-08-26T10:37:14+02:00</time>
      </trkpt>
      <trkpt lat="48.66004" lon="1.88033">
        <ele>170</ele>
        <time>2021-08-26T10:37:19+02:00</time>
      </trkpt>
      <trkpt lat="48.6596" lon="1.88052">
        <ele>170</ele>
        <time>2021-08-26T10:37:24+02:00</time>
      </trkpt>
      <trkpt lat="48.65929" lon="1.8821">
        <ele>174</ele>
        <time>2021-08-26T10:37:29+02:00</time>
      </trkpt>
      <trkpt lat="48.65914" lon="1.88343">
        <ele>173</ele>
        <time>2021-08-26T10:37:34+02:00</time>
      </trkpt>
      <trkpt lat="48.65896" lon="1.88432">
        <ele>173</ele>
        <time>2021-08-26T10:37:39+02:00</time>
      </trkpt>
      <trkpt lat="48.65899" lon="1.88461">
        <ele>174</ele>
        <time>2021-08-26T10:37:44+02:00</time>
      </trkpt>
      <trkpt lat="48.65885" lon="1.88489">
        <ele>174</ele>
        <time>2021-08-26T10:37:49+02:00</time>
      </trkpt>
      <trkpt lat="48.65854" lon="1.88487">
        <ele>172</ele>
        <time>2021-08-26T10:37:54+02:00</time>
      </trkpt>
      <trkpt lat="48.65817" lon="1.88498">
        <ele>171</ele>
        <time>2021-08-26T10:37:59+02:00</time>
      </trkpt>
      <trkpt lat="48.65749" lon="1.88524">
        <ele>170</ele>
        <time>2021-08-26T10:38:04+02:00</time>
      </trkpt>
      <trkpt lat="48.65706" lon="1.88543">
        <ele>173</ele>
        <time>2021-08-26T10:38:09+02:00</time>
      </trkpt>
      <trkpt lat="48.65584" lon="1.88539">
        <ele>172</ele>
        <time>2021-08-26T10:38:14+02:00</time>
      </trkpt>
      <trkpt lat="48.65511" lon="1.88513">
        <ele>174</ele>
        <time>2021-08-26T10:38:19+02:00</time>
      </trkpt>
      <trkpt lat="48.65489" lon="1.88501">
        <ele>173</ele>
        <time>2021-08-26T10:38:24+02:00</time>
      </trkpt>
      <trkpt lat="48.65478" lon="1.88525">
        <ele>173</ele>
        <time>2021-08-26T10:38:29+02:00</time>
      </trkpt>
      <trkpt lat="48.65439" lon="1.88536">
        <ele>171</ele>
        <time>2021-08-26T10:38:34+02:00</time>
      </trkpt>
      <trkpt lat="48.65228" lon="1.89829">
        <ele>181</ele>
        <time>2021-08-26T10:38:39+02:00</time>
      </trkpt>
      <trkpt lat="48.65635" lon="1.90273">
        <ele>180</ele>
        <time>2021-08-26T10:38:44+02:00</time>
      </trkpt>
      <trkpt lat="48.65748" lon="1.90016">
        <ele>180</ele>
        <time>2021-08-26T10:38:49+02:00</time>
      </trkpt>
      <trkpt lat="48.67055" lon="1.89862">
        <ele>171</ele>
        <time>2021-08-26T10:38:54+02:00</time>
      </trkpt>
      <trkpt lat="48.67795" lon="1.89789">
        <ele>173</ele>
        <time>2021-08-26T10:38:59+02:00</time>
      </trkpt>
      <trkpt lat="48.68129" lon="1.89743">
        <ele>180</ele>
        <time>2021-08-26T10:39:04+02:00</time>
      </trkpt>
      <trkpt lat="48.68601" lon="1.89692">
        <ele>181</ele>
        <time>2021-08-26T10:39:09+02:00</time>
      </trkpt>
      <trkpt lat="48.68899" lon="1.90221">
        <ele>183</ele>
        <time>2021-08-26T10:39:14+02:00</time>
      </trkpt>
      <trkpt lat="48.69053" lon="1.90335">
        <ele>182</ele>
        <time>2021-08-26T10:39:19+02:00</time>
      </trkpt>
      <trkpt lat="48.69129" lon="1.90462">
        <ele>177</ele>
        <time>2021-08-26T10:39:24+02:00</time>
      </trkpt>
      <trkpt lat="48.69156" lon="1.90774">
        <ele>154</ele>
        <time>2021-08-26T10:39:29+02:00</time>
      </trkpt>
      <trkpt lat="48.69168" lon="1.90939">
        <ele>146</ele>
        <time>2021-08-26T10:39:34+02:00</time>
      </trkpt>
      <trkpt lat="48.69174" lon="1.91031">
        <ele>144</ele>
        <time>2021-08-26T10:39:39+02:00</time>
      </trkpt>
      <trkpt lat="48.69368" lon="1.91507">
        <ele>138</ele>
        <time>2021-08-26T10:39:44+02:00</time>
      </trkpt>
      <trkpt lat="48.69431" lon="1.91606">
        <ele>148</ele>
        <time>2021-08-26T10:39:49+02:00</time>
      </trkpt>
      <trkpt lat="48.69512" lon="1.91842">
        <ele>161</ele>
        <time>2021-08-26T10:39:54+02:00</time>
      </trkpt>
      <trkpt lat="48.69595" lon="1.91981">
        <ele>173</ele>
        <time>2021-08-26T10:39:59+02:00</time>
      </trkpt>
      <trkpt lat="48.69806" lon="1.92125">
        <ele>181</ele>
        <time>2021-08-26T10:40:04+02:00</time>
      </trkpt>
      <trkpt lat="48.69431" lon="1.92934">
        <ele>180</ele>
        <time>2021-08-26T10:40:09+02:00</time>
      </trkpt>
      <trkpt lat="48.69297" lon="1.93246">
        <ele>180</ele>
        <time>2021-08-26T10:40:14+02:00</time>
      </trkpt>
      <trkpt lat="48.68799" lon="1.9451">
        <ele>185</ele>
        <time>2021-08-26T10:40:19+02:00</time>
      </trkpt>
      <trkpt lat="48.68398" lon="1.9554">
        <ele>176</ele>
        <time>2021-08-26T10:40:24+02:00</time>
      </trkpt>
      <trkpt lat="48.69034" lon="1.9609">
        <ele>175</ele>
        <time>2021-08-26T10:40:29+02:00</time>
      </trkpt>
    </trkseg>
  </trk>
</gpx>